Time;durP1;ratioP1;P1;durP2;ratioP2;P2;SDS_P1;SDS_P2;PMS_P1;PMS_P2;Temp;Humidity;BMP_temperature;BMP_pressure;BME280_temperature;BME280_humidity;BME280_pressure;Samples;Min_cycle;Max_cycle;Signal;HPM_P1;HPM_P2
2022/03/19 00:00:24;;;;;;;27.80;10.30;;;;;;;1.22;96.40;102682.55;104630;1272;59590;-72
2022/03/19 00:03:12;;;;;;;32.10;10.70;;;;;;;1.23;96.64;102684.64;104786;1271;73462;-72
2022/03/19 00:06:04;;;;;;;30.20;10.30;;;;;;;1.24;97.01;102686.23;104964;1271;68069;-71
2022/03/19 00:08:54;;;;;;;26.90;10.30;;;;;;;1.24;97.21;102687.09;104818;1271;73403;-71
2022/03/19 00:11:43;;;;;;;27.50;9.80;;;;;;;1.25;97.43;102688.50;104841;1271;60065;-71
2022/03/19 00:14:31;;;;;;;32.90;9.90;;;;;;;1.27;97.67;102689.36;104666;1271;60601;-71
2022/03/19 00:17:20;;;;;;;27.70;11.40;;;;;;;1.30;97.95;102688.34;104781;1271;71050;-71
2022/03/19 00:20:10;;;;;;;30.80;10.90;;;;;;;1.33;98.14;102688.51;104823;1271;67944;-71
2022/03/19 00:23:03;;;;;;;32.90;11.90;;;;;;;1.37;98.02;102685.36;104846;1271;72987;-71
2022/03/19 00:25:51;;;;;;;32.40;11.50;;;;;;;1.41;98.11;102681.36;104823;1271;59937;-72
2022/03/19 00:28:41;;;;;;;30.40;11.40;;;;;;;1.45;98.51;102681.20;104632;1273;59746;-71
2022/03/19 00:31:29;;;;;;;28.60;11.00;;;;;;;1.47;98.67;102677.17;105260;1271;73892;-71
2022/03/19 00:34:19;;;;;;;29.10;10.00;;;;;;;1.55;99.02;102684.02;104785;1271;67124;-70
2022/03/19 00:37:07;;;;;;;27.00;9.60;;;;;;;1.58;99.33;102681.58;104808;1271;71582;-70
2022/03/19 00:39:56;;;;;;;29.80;9.90;;;;;;;1.60;98.74;102681.40;104629;1271;59682;-70
2022/03/19 00:42:48;;;;;;;28.40;11.30;;;;;;;1.61;98.76;102679.65;104965;1273;59606;-70
2022/03/19 00:45:36;;;;;;;26.00;9.30;;;;;;;1.63;98.74;102685.25;104829;1271;73512;-69
2022/03/19 00:48:25;;;;;;;29.30;10.50;;;;;;;1.64;99.05;102687.02;104605;1271;66572;-69
2022/03/19 00:51:14;;;;;;;28.70;10.10;;;;;;;1.66;98.79;102684.39;104602;1273;72916;-69
2022/03/19 00:54:07;;;;;;;31.20;11.00;;;;;;;1.67;98.80;102687.54;104783;1271;59643;-69
2022/03/19 00:56:55;;;;;;;28.80;11.20;;;;;;;1.69;98.73;102688.25;104778;1273;59905;-70
2022/03/19 00:59:45;;;;;;;27.30;11.10;;;;;;;1.68;98.70;102686.48;104053;1271;1003775;-69
2022/03/19 01:02:33;;;;;;;28.60;10.20;;;;;;;1.67;98.48;102692.98;104861;1271;67311;-69
2022/03/19 01:05:24;;;;;;;31.10;11.20;;;;;;;1.66;98.43;102694.02;104828;1271;73428;-69
2022/03/19 01:08:13;;;;;;;27.40;11.10;;;;;;;1.66;98.57;102698.04;104915;1271;59941;-69
2022/03/19 01:11:04;;;;;;;27.10;10.10;;;;;;;1.66;98.45;102700.66;104867;1271;61283;-69
2022/03/19 01:13:54;;;;;;;28.60;10.20;;;;;;;1.67;98.61;102703.11;104833;1271;72356;-69
2022/03/19 01:16:42;;;;;;;36.70;12.10;;;;;;;1.66;98.21;102704.16;104689;1271;67165;-69
2022/03/19 01:22:40;;;;;;;32.40;11.40;;;;;;;1.75;98.69;102711.00;104843;1271;59771;-70
2022/03/19 01:25:31;;;;;;;29.40;11.40;;;;;;;1.81;98.80;102705.58;104865;1271;59681;-69
2022/03/19 01:28:19;;;;;;;32.60;11.80;;;;;;;1.86;98.64;102704.36;104843;1271;73221;-69
2022/03/19 01:31:12;;;;;;;30.50;11.00;;;;;;;1.89;97.99;102707.87;104631;1273;68235;-70
2022/03/19 01:34:01;;;;;;;30.80;9.90;;;;;;;1.92;98.17;102708.39;104628;1271;73288;-70
2022/03/19 01:36:50;;;;;;;26.20;10.30;;;;;;;1.97;98.11;102708.58;104646;1271;59781;-70
2022/03/19 01:39:38;;;;;;;26.20;9.70;;;;;;;1.98;97.71;102707.34;104858;1271;61060;-69
2022/03/19 01:42:30;;;;;;;29.90;10.20;;;;;;;1.99;97.42;102707.52;104636;1272;73578;-69
2022/03/19 01:45:24;;;;;;;27.30;9.60;;;;;;;1.95;97.08;102706.64;104843;1272;68561;-69
2022/03/19 01:48:13;;;;;;;24.40;8.90;;;;;;;1.95;97.08;102715.05;104784;1271;73419;-69
2022/03/19 01:51:01;;;;;;;28.70;11.10;;;;;;;1.91;97.01;102714.70;104837;1271;59851;-69
2022/03/19 01:53:52;;;;;;;23.60;9.50;;;;;;;1.86;97.01;102715.21;104725;1272;59812;-69
2022/03/19 01:56:44;;;;;;;26.10;9.80;;;;;;;1.85;96.94;102719.25;104857;1274;71974;-69
2022/03/19 01:59:36;;;;;;;24.80;9.40;;;;;;;1.85;96.97;102718.02;104786;1271;68230;-70
2022/03/19 02:02:26;;;;;;;26.00;10.10;;;;;;;1.81;96.74;102718.89;104821;1271;71758;-70
2022/03/19 02:05:21;;;;;;;27.40;11.00;;;;;;;1.81;97.10;102721.33;104859;1271;60258;-69
2022/03/19 02:08:09;;;;;;;27.30;10.60;;;;;;;1.85;97.32;102725.02;104960;1271;59662;-70
2022/03/19 02:10:58;;;;;;;28.50;10.70;;;;;;;1.90;97.47;102721.70;104822;1272;73147;-70
2022/03/19 02:13:47;;;;;;;29.30;11.60;;;;;;;1.94;97.34;102721.70;104830;1271;68286;-70
2022/03/19 02:16:36;;;;;;;33.00;11.10;;;;;;;1.99;97.12;102720.30;104612;1273;72643;-69
2022/03/19 02:19:25;;;;;;;28.90;11.40;;;;;;;2.05;97.04;102723.45;105015;1271;59720;-70
2022/03/19 02:22:14;;;;;;;34.20;11.90;;;;;;;2.11;96.68;102725.39;104836;1271;59843;-70
2022/03/19 02:28:12;;;;;;;31.20;10.80;;;;;;;2.18;96.42;102726.09;105103;1271;67303;-70
2022/03/19 02:31:02;;;;;;;30.30;10.90;;;;;;;2.22;96.13;102729.06;104657;1274;70670;-70
2022/03/19 02:33:51;;;;;;;23.80;9.50;;;;;;;2.24;96.12;102727.14;104765;1273;60163;-70
2022/03/19 02:36:43;;;;;;;27.00;10.40;;;;;;;2.22;95.86;102728.19;105269;1272;59568;-70
2022/03/19 02:39:52;;;;;;;26.30;9.60;;;;;;;2.20;95.72;102729.05;104552;1276;73555;-71
2022/03/19 02:42:44;;;;;;;30.80;10.20;;;;;;;2.16;95.43;102729.77;104528;1276;67228;-70
2022/03/19 02:45:32;;;;;;;30.80;11.60;;;;;;;2.13;95.29;102726.96;104511;1276;70560;-70
2022/03/19 02:48:21;;;;;;;37.30;12.90;;;;;;;2.11;95.37;102726.97;104592;1277;59646;-70
2022/03/19 02:51:13;;;;;;;34.20;12.20;;;;;;;2.11;95.34;102728.36;104660;1276;59702;-70
2022/03/19 02:54:04;;;;;;;31.20;11.20;;;;;;;2.09;95.82;102729.94;104532;1277;73530;-70
2022/03/19 02:56:55;;;;;;;30.80;10.40;;;;;;;2.09;95.94;102737.48;104623;1276;68570;-70
2022/03/19 02:59:44;;;;;;;27.40;11.30;;;;;;;2.11;95.99;102736.59;104444;1277;72635;-70
2022/03/19 03:02:32;;;;;;;28.30;11.60;;;;;;;2.11;95.67;102735.36;103959;1279;59983;-69
2022/03/19 03:05:21;;;;;;;36.50;12.20;;;;;;;2.13;95.50;102734.84;104150;1279;60615;-69
2022/03/19 03:08:09;;;;;;;31.20;12.50;;;;;;;2.12;95.36;102735.89;104040;1281;72770;-69
2022/03/19 03:10:58;;;;;;;27.40;11.70;;;;;;;2.12;95.60;102733.27;104154;1279;68383;-71
2022/03/19 03:13:48;;;;;;;27.60;11.10;;;;;;;2.12;95.92;102736.59;104307;1279;73495;-69
2022/03/19 03:16:36;;;;;;;33.20;10.90;;;;;;;2.13;96.03;102737.64;104206;1279;59883;-70
2022/03/19 03:19:25;;;;;;;31.10;12.60;;;;;;;2.12;95.92;102739.40;104532;1276;59723;-71
2022/03/19 03:22:14;;;;;;;37.90;13.40;;;;;;;2.12;95.79;102742.20;104568;1276;71908;-70
2022/03/19 03:25:03;;;;;;;38.70;13.60;;;;;;;2.11;95.69;102749.73;104600;1276;68541;-69
2022/03/19 03:27:54;;;;;;;38.50;13.20;;;;;;;2.08;95.69;102745.70;104529;1275;73224;-70
2022/03/19 03:30:43;;;;;;;42.90;15.30;;;;;;;2.07;96.07;102746.92;104507;1276;59813;-70
2022/03/19 03:33:31;;;;;;;43.70;14.60;;;;;;;2.08;96.00;102745.70;104648;1273;61018;-70
2022/03/19 03:36:21;;;;;;;40.00;14.50;;;;;;;2.06;96.11;102743.27;104885;1273;72416;-70
2022/03/19 03:39:10;;;;;;;42.90;15.40;;;;;;;2.10;96.17;102747.46;104872;1272;67241;-70
2022/03/19 03:41:58;;;;;;;42.30;15.90;;;;;;;2.11;96.31;102744.30;104791;1271;71509;-70
2022/03/19 03:44:46;;;;;;;42.20;16.90;;;;;;;2.12;96.05;102743.77;104829;1272;59970;-70
2022/03/19 03:47:35;;;;;;;45.50;16.50;;;;;;;2.13;96.16;102747.63;104663;1273;60815;-70
2022/03/19 03:50:24;;;;;;;44.80;15.40;;;;;;;2.15;96.01;102756.74;104840;1274;73552;-70
2022/03/19 03:53:12;;;;;;;45.90;16.00;;;;;;;2.11;95.63;102753.94;104764;1271;68745;-70
2022/03/19 03:56:04;;;;;;;43.60;16.00;;;;;;;2.08;95.63;102750.77;104680;1271;71928;-70
2022/03/19 03:58:52;;;;;;;43.00;15.40;;;;;;;2.09;96.20;102750.61;104687;1274;59633;-70
2022/03/19 04:01:41;;;;;;;38.90;14.90;;;;;;;2.09;96.17;102754.11;105061;1272;60893;-69
2022/03/19 04:04:30;;;;;;;36.10;14.90;;;;;;;2.02;95.84;102750.25;104826;1272;73640;-70
2022/03/19 04:07:19;;;;;;;29.50;12.10;;;;;;;1.98;95.89;102755.67;104757;1273;65661;-69
2022/03/19 04:10:08;;;;;;;34.20;14.30;;;;;;;1.94;96.01;102759.52;104815;1272;72728;-69
2022/03/19 04:12:57;;;;;;;38.30;14.00;;;;;;;1.88;95.88;102762.84;104842;1271;59771;-69
2022/03/19 04:15:46;;;;;;;35.70;14.20;;;;;;;1.81;95.98;102761.61;104633;1272;60051;-70
2022/03/19 04:18:35;;;;;;;33.70;13.50;;;;;;;1.82;96.49;102760.56;104886;1274;73543;-69
2022/03/19 04:21:25;;;;;;;31.90;12.80;;;;;;;1.79;96.54;102760.04;104800;1271;68571;-69
2022/03/19 04:24:13;;;;;;;36.10;13.80;;;;;;;1.77;96.71;102764.58;104793;1274;73053;-70
2022/03/19 04:27:01;;;;;;;35.40;12.80;;;;;;;1.77;96.85;102766.14;104826;1274;60055;-70
2022/03/19 04:29:50;;;;;;;35.00;14.10;;;;;;;1.76;96.63;102768.08;104744;1272;59576;-70
2022/03/19 04:32:48;;;;;;;33.60;12.60;;;;;;;1.77;97.02;102771.92;104716;1273;73349;-70
2022/03/19 04:38:44;;;;;;;34.60;13.60;;;;;;;1.73;96.57;102777.00;105353;1271;72017;-70
2022/03/19 04:41:34;;;;;;;33.00;13.80;;;;;;;1.73;96.91;102776.81;104650;1274;59854;-69
2022/03/19 04:44:23;;;;;;;31.40;11.90;;;;;;;1.71;96.72;102778.92;104839;1272;59576;-69
2022/03/19 04:47:12;;;;;;;34.80;12.70;;;;;;;1.68;96.38;102782.58;104680;1271;73161;-69
2022/03/19 04:50:04;;;;;;;30.00;11.50;;;;;;;1.67;97.03;102786.96;104816;1271;68533;-69
2022/03/19 04:52:55;;;;;;;29.70;11.70;;;;;;;1.64;96.97;102788.17;104954;1272;73455;-70
2022/03/19 04:55:47;;;;;;;28.00;11.30;;;;;;;1.64;97.38;102796.04;104966;1271;59810;-69
2022/03/19 04:58:37;;;;;;;31.10;12.60;;;;;;;1.61;97.13;102794.47;104580;1271;59565;-69
2022/03/19 05:01:28;;;;;;;31.20;12.20;;;;;;;1.58;96.97;102801.45;104859;1271;73635;-70
2022/03/19 05:04:17;;;;;;;30.90;12.60;;;;;;;1.57;97.12;102809.67;105108;1273;68101;-69
2022/03/19 05:07:07;;;;;;;29.10;11.40;;;;;;;1.55;97.15;102810.02;104764;1272;71802;-70
2022/03/19 05:13:03;;;;;;;27.80;11.10;;;;;;;1.57;97.61;102821.23;104867;1273;60976;-70
2022/03/19 05:15:51;;;;;;;30.00;11.10;;;;;;;1.61;98.07;102823.17;104787;1274;72338;-70
2022/03/19 05:18:41;;;;;;;28.50;12.20;;;;;;;1.66;98.05;102825.98;104723;1271;68118;-71
2022/03/19 05:21:30;;;;;;;30.20;12.80;;;;;;;1.71;97.67;102832.84;104844;1271;70566;-72
2022/03/19 05:24:21;;;;;;;32.20;13.20;;;;;;;1.73;97.43;102830.75;105101;1272;60157;-71
2022/03/19 05:27:11;;;;;;;29.20;12.30;;;;;;;1.75;97.37;102833.19;104951;1271;60828;-71
2022/03/19 05:30:02;;;;;;;29.20;11.20;;;;;;;1.77;97.23;102838.63;105289;1272;73686;-71
2022/03/19 05:32:55;;;;;;;31.60;12.40;;;;;;;1.82;97.59;102838.65;105954;1271;68177;-73
2022/03/19 05:35:45;;;;;;;28.10;11.80;;;;;;;1.89;97.59;102838.48;105188;1271;74714;-73
2022/03/19 05:38:38;;;;;;;25.40;11.30;;;;;;;1.96;97.34;102845.86;105180;1271;59637;-71
2022/03/19 05:41:33;;;;;;;22.00;10.00;;;;;;;1.96;97.20;102849.35;105551;1271;60818;-70
2022/03/19 05:44:22;;;;;;;21.30;9.00;;;;;;;1.93;97.06;102852.50;105034;1272;73436;-70
2022/03/19 05:47:12;;;;;;;20.80;8.80;;;;;;;1.93;96.70;102859.52;105018;1271;67035;-71
2022/03/19 05:50:07;;;;;;;22.10;9.20;;;;;;;1.88;96.53;102863.86;105177;1271;71970;-70
2022/03/19 05:52:56;;;;;;;26.80;10.20;;;;;;;1.81;96.78;102860.88;105085;1271;59817;-71
2022/03/19 05:55:44;;;;;;;23.50;9.40;;;;;;;1.83;97.04;102861.06;105053;1271;60170;-71
2022/03/19 05:58:34;;;;;;;23.40;9.60;;;;;;;1.89;97.37;102856.52;105009;1271;73587;-70
2022/03/19 06:01:29;;;;;;;25.40;10.70;;;;;;;1.93;97.30;102856.89;104942;1271;67225;-71
2022/03/19 06:04:22;;;;;;;27.30;10.40;;;;;;;1.98;97.32;102858.30;104963;1271;72813;-72
2022/03/19 06:07:15;;;;;;;26.00;10.30;;;;;;;2.02;96.87;102867.07;105291;1271;59773;-72
2022/03/19 06:10:06;;;;;;;26.40;9.80;;;;;;;2.01;96.44;102867.42;105063;1272;59805;-73
2022/03/19 06:12:55;;;;;;;28.80;10.70;;;;;;;2.01;96.58;102874.95;105054;1271;73590;-71
2022/03/19 06:15:44;;;;;;;24.20;9.20;;;;;;;1.99;96.32;102878.44;104996;1273;68132;-71
2022/03/19 06:18:35;;;;;;;27.50;9.90;;;;;;;1.97;96.75;102881.77;104953;1271;70814;-71
2022/03/19 06:21:26;;;;;;;23.70;9.50;;;;;;;1.98;96.51;102881.77;104999;1271;59619;-72
2022/03/19 06:24:18;;;;;;;26.50;11.00;;;;;;;2.03;96.97;102885.98;104946;1271;60319;-70
2022/03/19 06:27:10;;;;;;;26.00;9.90;;;;;;;2.11;96.80;102892.13;105097;1271;73607;-72
2022/03/19 06:30:02;;;;;;;25.30;9.00;;;;;;;2.20;96.84;102888.65;104957;1271;65859;-71
2022/03/19 06:32:51;;;;;;;23.70;9.00;;;;;;;2.33;96.50;102896.05;105146;1272;72963;-72
2022/03/19 06:38:50;;;;;;;19.10;7.70;;;;;;;2.40;96.06;102902.71;105237;1271;59735;-73
2022/03/19 06:41:39;;;;;;;20.40;7.40;;;;;;;2.40;95.62;102905.70;104555;1271;1003053;-73
2022/03/19 06:44:38;;;;;;;19.00;7.20;;;;;;;2.41;95.53;102912.71;104983;1271;66940;-71
2022/03/19 06:47:27;;;;;;;18.90;8.70;;;;;;;2.45;95.46;102913.41;105148;1271;71980;-71
2022/03/19 06:50:16;;;;;;;18.60;7.30;;;;;;;2.47;95.81;102917.45;105366;1271;59732;-71
2022/03/19 06:53:06;;;;;;;18.10;7.20;;;;;;;2.52;95.99;102919.74;104751;1271;60705;-71
2022/03/19 06:55:55;;;;;;;22.00;8.20;;;;;;;2.52;95.37;102926.04;105094;1271;72356;-74
2022/03/19 06:58:44;;;;;;;23.10;8.80;;;;;;;2.54;95.56;102934.29;105034;1271;68659;-72
2022/03/19 07:01:36;;;;;;;25.00;8.90;;;;;;;2.59;95.58;102931.67;105346;1271;72461;-72
2022/03/19 07:04:25;;;;;;;24.90;9.00;;;;;;;2.62;95.97;102934.83;105281;1271;59954;-72
2022/03/19 07:07:14;;;;;;;20.40;8.60;;;;;;;2.63;95.93;102939.39;105312;1271;59839;-71
2022/03/19 07:10:09;;;;;;;18.90;7.50;;;;;;;2.60;95.89;102937.10;104979;1271;73659;-75
2022/03/19 07:12:59;;;;;;;21.40;8.80;;;;;;;2.58;95.97;102937.45;105500;1271;65338;-75
2022/03/19 07:15:51;;;;;;;23.00;9.50;;;;;;;2.59;96.21;102935.35;105407;1271;72669;-75
2022/03/19 07:18:43;;;;;;;24.20;9.10;;;;;;;2.61;96.54;102934.65;105255;1271;59691;-73
2022/03/19 07:21:31;;;;;;;22.80;9.30;;;;;;;2.64;96.33;102936.92;105245;1274;59610;-73
2022/03/19 07:24:23;;;;;;;29.20;11.10;;;;;;;2.65;96.33;102940.42;105011;1271;73303;-73
2022/03/19 07:27:12;;;;;;;26.80;11.90;;;;;;;2.69;96.46;102943.43;105058;1271;67255;-75
2022/03/19 07:30:01;;;;;;;30.10;11.90;;;;;;;2.76;96.77;102952.02;104916;1271;72107;-73
2022/03/19 07:32:50;;;;;;;20.50;8.30;;;;;;;2.79;96.76;102943.08;104800;1271;59784;-75
2022/03/19 07:35:41;;;;;;;20.00;7.90;;;;;;;2.83;96.30;102953.79;104989;1271;60248;-73
2022/03/19 07:38:32;;;;;;;17.40;8.20;;;;;;;2.85;96.11;102956.59;105049;1271;71967;-74
2022/03/19 07:44:30;;;;;;;18.80;8.30;;;;;;;2.89;95.91;102961.86;105284;1271;71489;-74
2022/03/19 07:47:22;;;;;;;16.50;7.00;;;;;;;2.92;96.26;102964.48;105004;1271;59626;-74
2022/03/19 07:50:11;;;;;;;15.10;5.90;;;;;;;2.94;96.17;102963.43;105057;1271;59550;-74
2022/03/19 07:53:00;;;;;;;15.30;5.90;;;;;;;2.96;95.34;102966.23;105068;1271;72055;-73
2022/03/19 07:55:54;;;;;;;11.60;4.80;;;;;;;2.97;95.44;102969.57;105213;1271;68947;-72
2022/03/19 07:58:50;;;;;;;14.50;5.30;;;;;;;2.98;95.31;102969.92;104988;1272;71659;-72
2022/03/19 08:01:40;;;;;;;12.80;5.10;;;;;;;2.99;95.17;102967.30;105266;1271;60082;-71
2022/03/19 08:04:32;;;;;;;11.00;4.50;;;;;;;3.00;94.97;102971.16;105144;1273;60142;-71
2022/03/19 08:07:22;;;;;;;11.00;4.50;;;;;;;2.96;94.24;102973.27;104933;1271;73445;-73
2022/03/19 08:10:13;;;;;;;13.50;4.10;;;;;;;3.00;94.34;102978.70;105132;1271;67401;-70
2022/03/19 08:13:07;;;;;;;11.90;4.90;;;;;;;3.00;93.88;102979.92;104820;1272;71680;-71
2022/03/19 08:15:56;;;;;;;11.50;4.60;;;;;;;2.99;93.93;102983.26;104421;1271;1003400;-71
2022/03/19 08:18:45;;;;;;;11.20;4.80;;;;;;;2.97;94.17;102982.20;105183;1272;59998;-70
2022/03/19 08:21:34;;;;;;;9.80;3.70;;;;;;;3.04;94.16;102990.80;105248;1271;73393;-70
2022/03/19 08:24:25;;;;;;;10.20;4.00;;;;;;;3.01;93.27;102987.99;105281;1271;66689;-71
2022/03/19 08:27:13;;;;;;;11.30;3.80;;;;;;;3.06;93.34;102989.94;105124;1271;70877;-71
2022/03/19 08:30:03;;;;;;;10.50;4.70;;;;;;;3.15;93.21;102990.27;105049;1271;59656;-70
2022/03/19 08:32:54;;;;;;;12.40;4.70;;;;;;;3.29;93.23;102987.11;105268;1271;60557;-70
2022/03/19 08:35:46;;;;;;;14.80;5.30;;;;;;;3.44;93.13;102990.26;105481;1271;73492;-70
2022/03/19 08:41:42;;;;;;;7.90;3.00;;;;;;;3.51;91.58;102994.98;105377;1271;73199;-70
2022/03/19 08:44:32;;;;;;;10.00;3.20;;;;;;;3.49;91.13;102996.74;105160;1271;59630;-71
2022/03/19 08:47:23;;;;;;;10.40;3.90;;;;;;;3.51;91.23;102999.03;105319;1271;61082;-71
2022/03/19 08:50:12;;;;;;;9.60;4.00;;;;;;;3.54;90.62;102999.90;104967;1271;73740;-71
2022/03/19 08:53:04;;;;;;;11.90;3.90;;;;;;;3.52;89.99;103000.78;105073;1271;66685;-70
2022/03/19 08:55:53;;;;;;;20.40;10.00;;;;;;;3.55;89.73;103001.31;105167;1272;71805;-69
2022/03/19 08:58:43;;;;;;;10.30;4.30;;;;;;;3.64;90.00;103004.44;104716;1277;60019;-70
2022/03/19 09:01:33;;;;;;;13.70;4.40;;;;;;;3.69;89.22;103003.39;104860;1277;59589;-70
2022/03/19 09:04:22;;;;;;;11.40;4.30;;;;;;;3.74;89.40;103009.17;104703;1277;73799;-69
2022/03/19 09:07:13;;;;;;;12.30;3.80;;;;;;;3.85;89.17;103008.80;104669;1277;66784;-69
2022/03/19 09:10:02;;;;;;;9.70;4.10;;;;;;;3.92;88.89;103009.66;104726;1276;73597;-69
2022/03/19 09:12:56;;;;;;;11.10;4.10;;;;;;;4.03;88.41;103010.67;104603;1277;59814;-69
2022/03/19 09:15:49;;;;;;;12.70;5.00;;;;;;;4.02;87.81;103014.02;104717;1276;59718;-72
2022/03/19 09:18:59;;;;;;;10.60;4.50;;;;;;;4.06;88.07;103012.08;105622;1276;73086;-72
2022/03/19 09:21:51;;;;;;;17.40;6.50;;;;;;;4.15;87.82;103017.48;104960;1277;66771;-72
2022/03/19 09:24:40;;;;;;;12.10;4.80;;;;;;;4.21;87.24;103018.86;105029;1276;1003652;-72
2022/03/19 09:27:38;;;;;;;12.90;4.50;;;;;;;4.24;86.95;103023.61;104896;1277;59884;-73
2022/03/19 09:30:27;;;;;;;12.60;4.50;;;;;;;4.27;87.34;103023.08;105008;1271;59611;-70
2022/03/19 09:33:20;;;;;;;13.80;5.10;;;;;;;4.33;87.43;103023.23;104925;1276;72218;-72
2022/03/19 09:36:09;;;;;;;11.50;4.60;;;;;;;4.37;87.22;103022.32;104897;1277;68323;-72
2022/03/19 09:39:00;;;;;;;12.00;4.90;;;;;;;4.37;86.37;103026.02;104891;1276;71570;-70
2022/03/19 09:41:50;;;;;;;11.60;4.90;;;;;;;4.34;85.97;103025.85;105009;1277;59551;-71
2022/03/19 09:44:43;;;;;;;13.00;5.00;;;;;;;4.36;85.79;103026.90;105079;1277;59598;-72
2022/03/19 09:47:33;;;;;;;10.80;4.40;;;;;;;4.47;85.68;103030.19;104798;1280;72097;-70
2022/03/19 09:50:24;;;;;;;13.00;4.60;;;;;;;4.60;84.93;103030.47;105055;1279;67969;-70
2022/03/19 09:53:24;;;;;;;11.50;4.50;;;;;;;4.71;84.15;103027.07;104889;1280;71738;-71
2022/03/19 09:56:34;;;;;;;10.50;4.30;;;;;;;4.84;83.68;103029.27;104987;1279;59900;-74
2022/03/19 09:59:23;;;;;;;9.00;4.10;;;;;;;4.93;82.69;103033.79;104571;1279;61026;-72
2022/03/19 10:02:12;;;;;;;11.00;4.60;;;;;;;5.01;82.53;103034.98;104399;1280;73163;-73
2022/03/19 10:08:35;;;;;;;11.50;4.00;;;;;;;5.08;82.13;103036.14;104552;1280;68057;-75
2022/03/19 10:08:43;;;;;;;10.80;4.70;;;;;;;5.12;81.98;103038.41;104606;1281;73084;-74
2022/03/19 10:11:36;;;;;;;11.70;5.00;;;;;;;5.14;81.99;103036.99;104444;1281;60287;-73
2022/03/19 10:14:26;;;;;;;11.70;5.00;;;;;;;5.13;81.52;103038.40;104280;1282;59734;-73
2022/03/19 10:17:34;;;;;;;11.20;4.90;;;;;;;5.14;81.58;103034.87;104067;1284;71909;-71
2022/03/19 10:20:27;;;;;;;10.90;4.50;;;;;;;5.18;81.61;103041.36;104872;1278;68343;-73
2022/03/19 10:23:28;;;;;;;11.00;4.20;;;;;;;5.18;81.57;103041.88;105525;1281;71848;-74
2022/03/19 10:26:40;;;;;;;10.70;4.50;;;;;;;5.32;81.62;103042.65;104778;1281;59640;-74
2022/03/19 10:29:37;;;;;;;10.80;3.70;;;;;;;5.48;80.87;103038.98;104765;1280;59783;-75
2022/03/19 10:32:28;;;;;;;16.00;4.60;;;;;;;5.53;80.14;103040.89;104682;1281;73961;-75
2022/03/19 10:35:41;;;;;;;12.00;4.40;;;;;;;5.57;79.74;103037.85;104594;1281;66434;-74
2022/03/19 10:39:22;;;;;;;8.90;3.80;;;;;;;5.64;79.67;103038.69;104561;1279;71391;-75
2022/03/19 10:42:18;;;;;;;9.80;4.00;;;;;;;5.73;78.69;103040.16;104787;1271;59807;-76
2022/03/19 10:45:11;;;;;;;9.80;3.90;;;;;;;5.82;77.83;103045.02;104740;1272;59554;-73
2022/03/19 10:48:02;;;;;;;10.20;4.10;;;;;;;5.99;77.54;103044.34;105102;1271;73319;-71
2022/03/19 10:50:54;;;;;;;10.10;4.00;;;;;;;6.35;76.68;103037.75;105245;1271;67355;-70
2022/03/19 10:53:45;;;;;;;12.40;4.70;;;;;;;6.56;75.57;103042.42;104975;1272;72771;-74
2022/03/19 10:56:34;;;;;;;16.50;4.60;;;;;;;6.64;74.47;103041.06;105058;1271;59675;-72
2022/03/19 10:59:24;;;;;;;10.70;4.00;;;;;;;6.69;74.26;103040.83;105293;1271;60052;-74
2022/03/19 11:02:16;;;;;;;9.90;4.30;;;;;;;6.73;73.92;103038.84;104928;1277;72299;-75
2022/03/19 11:05:08;;;;;;;12.50;4.80;;;;;;;6.74;73.63;103037.77;104950;1278;67364;-75
2022/03/19 11:08:02;;;;;;;10.50;4.30;;;;;;;6.80;73.48;103035.02;104682;1277;73165;-74
2022/03/19 11:10:58;;;;;;;9.00;3.90;;;;;;;6.97;72.81;103040.05;102701;1277;1004764;-77
2022/03/19 11:13:49;;;;;;;11.40;4.40;;;;;;;7.32;72.01;103034.92;104965;1278;59652;-76
2022/03/19 11:16:41;;;;;;;9.90;4.00;;;;;;;7.57;70.60;103036.63;104789;1277;72378;-76
2022/03/19 11:19:32;;;;;;;9.40;3.80;;;;;;;7.59;69.54;103034.83;105000;1278;68222;-72
2022/03/19 11:22:23;;;;;;;13.30;4.50;;;;;;;7.60;69.81;103037.10;104635;1277;71954;-69
2022/03/19 11:25:50;;;;;;;12.50;4.70;;;;;;;7.65;69.37;103035.59;105047;1278;59798;-71
2022/03/19 11:28:56;;;;;;;12.40;4.40;;;;;;;7.63;68.96;103032.80;103557;1276;1003726;-76
2022/03/19 11:32:05;;;;;;;11.70;5.20;;;;;;;7.62;69.11;103033.54;105010;1278;73383;-73
2022/03/19 11:35:02;;;;;;;10.70;3.80;;;;;;;7.56;68.93;103030.82;105572;1272;68278;-76
2022/03/19 11:38:04;;;;;;;10.70;4.80;;;;;;;7.59;69.43;103027.05;105485;1271;71590;-73
2022/03/19 11:40:56;;;;;;;12.80;3.80;;;;;;;7.69;69.74;103024.38;105186;1274;59672;-76
2022/03/19 11:43:45;;;;;;;12.50;4.70;;;;;;;7.78;68.44;103020.69;105127;1271;62022;-76
2022/03/19 11:47:16;;;;;;;9.70;4.00;;;;;;;7.85;67.97;103026.38;105201;1271;73216;-77
2022/03/19 11:50:23;;;;;;;11.70;3.70;;;;;;;7.98;67.79;103018.52;105520;1271;68416;-75
2022/03/19 11:53:25;;;;;;;11.50;4.10;;;;;;;8.05;66.84;103015.38;105058;1274;72970;-76
2022/03/19 11:56:19;;;;;;;12.40;4.10;;;;;;;8.41;65.76;103013.06;105316;1274;59872;-76
2022/03/19 11:59:44;;;;;;;9.60;3.50;;;;;;;8.47;65.27;103009.95;104829;1274;60598;-76
2022/03/19 12:03:07;;;;;;;9.60;3.70;;;;;;;8.35;64.85;103010.16;103808;1274;2002949;-74
2022/03/19 12:05:56;;;;;;;10.10;3.60;;;;;;;8.52;64.67;103006.13;105625;1274;65700;-69
2022/03/19 12:08:50;;;;;;;15.10;4.30;;;;;;;8.81;63.87;103010.25;102850;1274;2002879;-71
2022/03/19 12:11:39;;;;;;;11.70;3.90;;;;;;;9.09;62.35;103004.42;105027;1271;59599;-70
2022/03/19 12:14:28;;;;;;;7.90;3.50;;;;;;;9.14;61.92;103006.41;105081;1271;59896;-71
2022/03/19 12:17:31;;;;;;;9.00;3.40;;;;;;;9.29;60.66;103003.22;105269;1271;73774;-71
2022/03/19 12:20:20;;;;;;;9.90;3.50;;;;;;;9.55;59.54;103001.48;105235;1271;68107;-71
2022/03/19 12:23:11;;;;;;;10.60;3.80;;;;;;;9.98;58.38;102995.89;105131;1272;72249;-71
2022/03/19 12:26:05;;;;;;;9.60;3.70;;;;;;;10.61;56.71;102994.92;105198;1271;59686;-71
2022/03/19 12:29:01;;;;;;;11.40;4.10;;;;;;;11.08;55.43;102993.60;105155;1272;59424;-76
2022/03/19 12:31:53;;;;;;;8.10;3.60;;;;;;;11.18;54.33;102991.31;105138;1272;73780;-74
2022/03/19 12:34:42;;;;;;;7.80;3.00;;;;;;;11.06;54.95;102991.00;105164;1271;68524;-74
2022/03/19 12:37:52;;;;;;;9.90;3.60;;;;;;;10.90;54.91;102984.92;105286;1271;72988;-75
2022/03/19 12:43:48;;;;;;;15.90;5.90;;;;;;;10.33;55.25;102983.50;105314;1271;59742;-73
2022/03/19 12:46:38;;;;;;;11.50;4.00;;;;;;;10.02;56.22;102982.29;105441;1274;73570;-70
2022/03/19 12:49:30;;;;;;;11.00;3.60;;;;;;;9.73;56.51;102975.48;105296;1271;68044;-71
2022/03/19 12:52:19;;;;;;;12.60;4.00;;;;;;;9.41;57.35;102977.39;105240;1271;72028;-71
2022/03/19 12:56:12;;;;;;;11.70;3.80;;;;;;;9.13;57.91;102978.83;105325;1271;59653;-72
2022/03/19 12:59:28;;;;;;;9.80;3.50;;;;;;;8.83;59.42;102974.06;104598;1279;59582;-73
2022/03/19 13:06:41;;;;;;;9.70;3.20;;;;;;;8.48;60.82;102972.23;104418;1279;68318;-75
2022/03/19 13:09:36;;;;;;;8.90;3.40;;;;;;;8.38;60.87;102966.04;104548;1280;72895;-74
2022/03/19 13:12:29;;;;;;;9.60;3.60;;;;;;;8.30;61.58;102965.52;105329;1279;59684;-75
2022/03/19 13:15:20;;;;;;;9.10;3.10;;;;;;;8.21;61.64;102968.71;104523;1279;60011;-74
2022/03/19 13:18:29;;;;;;;9.40;3.10;;;;;;;8.10;61.95;102971.61;104332;1280;71331;-76
2022/03/19 13:21:22;;;;;;;9.40;3.00;;;;;;;8.04;61.89;102967.31;104565;1281;66771;-75
2022/03/19 13:24:13;;;;;;;9.80;3.30;;;;;;;7.99;62.31;102964.23;104240;1281;72899;-76
2022/03/19 13:27:01;;;;;;;10.20;3.50;;;;;;;7.97;62.58;102966.91;104295;1281;60024;-75
2022/03/19 13:30:12;;;;;;;9.20;3.70;;;;;;;7.96;62.86;102966.77;104380;1281;59592;-76
2022/03/19 13:33:02;;;;;;;13.00;5.30;;;;;;;7.97;63.10;102967.81;104561;1281;72040;-74
2022/03/19 13:35:52;;;;;;;12.10;5.10;;;;;;;7.99;63.28;102966.17;104689;1272;66593;-77
2022/03/19 13:38:41;;;;;;;10.10;4.10;;;;;;;8.03;63.38;102968.57;105025;1271;71941;-75